sensor_id;sensor_type;location;lat;lon;timestamp;P1;durP1;ratioP1;P2;durP2;ratioP2
14048;SDS011;7099;53.922;10.728;2024-03-02T00:01:03;37.43;;;20.27;;
14048;SDS011;7099;53.922;10.728;2024-03-02T00:05:12;33.13;;;18.90;;
14048;SDS011;7099;53.922;10.728;2024-03-02T00:09:20;34.10;;;19.10;;
14048;SDS011;7099;53.922;10.728;2024-03-02T00:13:26;36.43;;;19.07;;
14048;SDS011;7099;53.922;10.728;2024-03-02T00:17:31;34.17;;;19.33;;
14048;SDS011;7099;53.922;10.728;2024-03-02T00:21:37;36.63;;;20.83;;
14048;SDS011;7099;53.922;10.728;2024-03-02T00:25:44;37.63;;;19.60;;
14048;SDS011;7099;53.922;10.728;2024-03-02T00:29:53;38.70;;;19.83;;
14048;SDS011;7099;53.922;10.728;2024-03-02T00:33:59;35.83;;;18.83;;
14048;SDS011;7099;53.922;10.728;2024-03-02T00:38:09;38.23;;;20.17;;
14048;SDS011;7099;53.922;10.728;2024-03-02T00:42:14;32.25;;;19.10;;
14048;SDS011;7099;53.922;10.728;2024-03-02T00:46:20;34.00;;;19.13;;
14048;SDS011;7099;53.922;10.728;2024-03-02T00:50:26;39.70;;;19.50;;
14048;SDS011;7099;53.922;10.728;2024-03-02T00:54:35;37.17;;;19.00;;
14048;SDS011;7099;53.922;10.728;2024-03-02T00:58:40;39.27;;;21.23;;
14048;SDS011;7099;53.922;10.728;2024-03-02T01:02:46;32.97;;;18.83;;
14048;SDS011;7099;53.922;10.728;2024-03-02T01:06:51;37.77;;;19.23;;
14048;SDS011;7099;53.922;10.728;2024-03-02T01:10:57;33.50;;;18.70;;
14048;SDS011;7099;53.922;10.728;2024-03-02T01:15:03;36.47;;;19.57;;
14048;SDS011;7099;53.922;10.728;2024-03-02T01:19:12;37.70;;;20.60;;
14048;SDS011;7099;53.922;10.728;2024-03-02T01:23:19;35.83;;;19.40;;
14048;SDS011;7099;53.922;10.728;2024-03-02T01:27:24;35.57;;;19.77;;
14048;SDS011;7099;53.922;10.728;2024-03-02T01:31:30;43.10;;;20.80;;
14048;SDS011;7099;53.922;10.728;2024-03-02T01:35:35;37.60;;;19.17;;
14048;SDS011;7099;53.922;10.728;2024-03-02T01:39:42;37.20;;;20.33;;
14048;SDS011;7099;53.922;10.728;2024-03-02T01:43:47;37.03;;;19.33;;
14048;SDS011;7099;53.922;10.728;2024-03-02T01:47:53;42.53;;;20.87;;
14048;SDS011;7099;53.922;10.728;2024-03-02T01:51:59;33.33;;;20.10;;
14048;SDS011;7099;53.922;10.728;2024-03-02T01:56:04;36.40;;;20.30;;
14048;SDS011;7099;53.922;10.728;2024-03-02T02:00:10;39.17;;;20.20;;
14048;SDS011;7099;53.922;10.728;2024-03-02T02:04:17;37.47;;;19.50;;
14048;SDS011;7099;53.922;10.728;2024-03-02T02:08:22;39.57;;;21.33;;
14048;SDS011;7099;53.922;10.728;2024-03-02T02:12:28;44.20;;;21.60;;
14048;SDS011;7099;53.922;10.728;2024-03-02T02:16:33;37.83;;;20.80;;
14048;SDS011;7099;53.922;10.728;2024-03-02T02:20:39;42.07;;;22.07;;
14048;SDS011;7099;53.922;10.728;2024-03-02T02:24:45;42.30;;;22.57;;
14048;SDS011;7099;53.922;10.728;2024-03-02T02:28:50;39.67;;;19.50;;
14048;SDS011;7099;53.922;10.728;2024-03-02T02:32:56;42.27;;;21.83;;
14048;SDS011;7099;53.922;10.728;2024-03-02T02:37:03;36.27;;;20.43;;
14048;SDS011;7099;53.922;10.728;2024-03-02T02:41:08;37.20;;;19.87;;
14048;SDS011;7099;53.922;10.728;2024-03-02T02:45:14;43.40;;;21.20;;
14048;SDS011;7099;53.922;10.728;2024-03-02T02:49:20;38.60;;;20.30;;
14048;SDS011;7099;53.922;10.728;2024-03-02T02:53:26;40.97;;;21.20;;
14048;SDS011;7099;53.922;10.728;2024-03-02T02:57:32;47.93;;;21.33;;
14048;SDS011;7099;53.922;10.728;2024-03-02T03:01:42;38.53;;;20.53;;
14048;SDS011;7099;53.922;10.728;2024-03-02T03:05:49;43.10;;;21.17;;
14048;SDS011;7099;53.922;10.728;2024-03-02T03:09:54;44.53;;;20.70;;
14048;SDS011;7099;53.922;10.728;2024-03-02T03:14:00;44.27;;;21.87;;
14048;SDS011;7099;53.922;10.728;2024-03-02T03:18:06;39.70;;;21.53;;
14048;SDS011;7099;53.922;10.728;2024-03-02T03:22:15;39.47;;;20.47;;
14048;SDS011;7099;53.922;10.728;2024-03-02T03:26:21;40.10;;;22.07;;
14048;SDS011;7099;53.922;10.728;2024-03-02T03:30:27;40.50;;;20.57;;
14048;SDS011;7099;53.922;10.728;2024-03-02T03:34:32;37.10;;;21.27;;
14048;SDS011;7099;53.922;10.728;2024-03-02T04:23:39;37.50;;;21.30;;
14048;SDS011;7099;53.922;10.728;2024-03-02T04:27:45;37.13;;;20.30;;
14048;SDS011;7099;53.922;10.728;2024-03-02T04:56:24;45.00;;;22.43;;
14048;SDS011;7099;53.922;10.728;2024-03-02T05:00:36;37.73;;;21.67;;
14048;SDS011;7099;53.922;10.728;2024-03-02T05:04:41;38.45;;;21.60;;
14048;SDS011;7099;53.922;10.728;2024-03-02T05:08:47;46.50;;;22.30;;
14048;SDS011;7099;53.922;10.728;2024-03-02T05:12:52;41.90;;;21.70;;
14048;SDS011;7099;53.922;10.728;2024-03-02T05:17:05;38.53;;;20.63;;
14048;SDS011;7099;53.922;10.728;2024-03-02T05:21:11;42.57;;;23.43;;
14048;SDS011;7099;53.922;10.728;2024-03-02T05:33:27;39.73;;;21.60;;
14048;SDS011;7099;53.922;10.728;2024-03-02T05:37:34;42.07;;;20.80;;
14048;SDS011;7099;53.922;10.728;2024-03-02T05:41:40;48.53;;;23.97;;
14048;SDS011;7099;53.922;10.728;2024-03-02T05:45:46;46.70;;;24.03;;
14048;SDS011;7099;53.922;10.728;2024-03-02T05:49:52;43.53;;;22.70;;
14048;SDS011;7099;53.922;10.728;2024-03-02T05:53:57;45.17;;;22.87;;
14048;SDS011;7099;53.922;10.728;2024-03-02T08:38:14;45.13;;;24.87;;
14048;SDS011;7099;53.922;10.728;2024-03-02T08:42:19;44.57;;;24.20;;
14048;SDS011;7099;53.922;10.728;2024-03-02T08:46:25;47.73;;;25.17;;
14048;SDS011;7099;53.922;10.728;2024-03-02T08:50:31;45.37;;;23.17;;
14048;SDS011;7099;53.922;10.728;2024-03-02T08:54:36;45.00;;;23.40;;
14048;SDS011;7099;53.922;10.728;2024-03-02T08:58:43;44.83;;;24.30;;
14048;SDS011;7099;53.922;10.728;2024-03-02T09:02:49;50.83;;;25.30;;
14048;SDS011;7099;53.922;10.728;2024-03-02T09:06:54;45.20;;;24.37;;
14048;SDS011;7099;53.922;10.728;2024-03-02T09:11:00;44.10;;;24.50;;
14048;SDS011;7099;53.922;10.728;2024-03-02T09:15:06;45.50;;;24.10;;
14048;SDS011;7099;53.922;10.728;2024-03-02T09:19:12;46.97;;;23.33;;
14048;SDS011;7099;53.922;10.728;2024-03-02T09:23:18;39.77;;;22.17;;
14048;SDS011;7099;53.922;10.728;2024-03-02T09:27:23;37.43;;;22.27;;
14048;SDS011;7099;53.922;10.728;2024-03-02T09:31:29;42.53;;;23.63;;
14048;SDS011;7099;53.922;10.728;2024-03-02T09:35:34;39.00;;;22.60;;
14048;SDS011;7099;53.922;10.728;2024-03-02T09:39:40;36.53;;;21.67;;
14048;SDS011;7099;53.922;10.728;2024-03-02T09:43:50;40.77;;;22.27;;
14048;SDS011;7099;53.922;10.728;2024-03-02T09:47:56;35.27;;;20.77;;
14048;SDS011;7099;53.922;10.728;2024-03-02T09:52:02;41.67;;;22.90;;
14048;SDS011;7099;53.922;10.728;2024-03-02T09:56:10;37.97;;;20.87;;
14048;SDS011;7099;53.922;10.728;2024-03-02T10:00:16;34.17;;;20.23;;
14048;SDS011;7099;53.922;10.728;2024-03-02T10:04:23;37.27;;;19.70;;
14048;SDS011;7099;53.922;10.728;2024-03-02T10:08:42;31.27;;;19.47;;
14048;SDS011;7099;53.922;10.728;2024-03-02T10:12:49;27.43;;;17.07;;
14048;SDS011;7099;53.922;10.728;2024-03-02T10:17:12;28.20;;;16.33;;
14048;SDS011;7099;53.922;10.728;2024-03-02T10:21:18;32.80;;;17.50;;
14048;SDS011;7099;53.922;10.728;2024-03-02T10:25:31;23.93;;;16.77;;
14048;SDS011;7099;53.922;10.728;2024-03-02T10:29:55;30.23;;;15.47;;
14048;SDS011;7099;53.922;10.728;2024-03-02T10:34:00;30.00;;;16.97;;
14048;SDS011;7099;53.922;10.728;2024-03-02T10:42:12;24.80;;;15.70;;
14048;SDS011;7099;53.922;10.728;2024-03-02T10:46:20;24.50;;;14.50;;
14048;SDS011;7099;53.922;10.728;2024-03-02T10:50:25;26.43;;;14.10;;
14048;SDS011;7099;53.922;10.728;2024-03-02T10:54:31;21.30;;;13.30;;
14048;SDS011;7099;53.922;10.728;2024-03-02T10:58:42;23.77;;;15.00;;
14048;SDS011;7099;53.922;10.728;2024-03-02T11:02:51;27.53;;;14.03;;
14048;SDS011;7099;53.922;10.728;2024-03-02T11:07:17;22.27;;;13.33;;
14048;SDS011;7099;53.922;10.728;2024-03-02T11:11:24;23.97;;;13.70;;
14048;SDS011;7099;53.922;10.728;2024-03-02T11:15:35;23.03;;;13.20;;
14048;SDS011;7099;53.922;10.728;2024-03-02T11:19:54;21.67;;;12.70;;
14048;SDS011;7099;53.922;10.728;2024-03-02T11:24:00;21.73;;;12.43;;
14048;SDS011;7099;53.922;10.728;2024-03-02T11:28:34;22.47;;;12.90;;
14048;SDS011;7099;53.922;10.728;2024-03-02T11:32:43;19.93;;;11.93;;
14048;SDS011;7099;53.922;10.728;2024-03-02T11:37:01;18.90;;;11.57;;
14048;SDS011;7099;53.922;10.728;2024-03-02T11:41:08;19.57;;;11.90;;
14048;SDS011;7099;53.922;10.728;2024-03-02T11:45:17;17.10;;;11.30;;
14048;SDS011;7099;53.922;10.728;2024-03-02T11:53:46;20.00;;;11.70;;
14048;SDS011;7099;53.922;10.728;2024-03-02T11:57:52;18.17;;;11.10;;
14048;SDS011;7099;53.922;10.728;2024-03-02T12:01:58;21.23;;;11.87;;
14048;SDS011;7099;53.922;10.728;2024-03-02T12:06:04;17.60;;;10.90;;
14048;SDS011;7099;53.922;10.728;2024-03-02T12:10:11;15.33;;;10.07;;
14048;SDS011;7099;53.922;10.728;2024-03-02T12:14:17;14.87;;;9.43;;
14048;SDS011;7099;53.922;10.728;2024-03-02T12:18:22;13.80;;;9.57;;
14048;SDS011;7099;53.922;10.728;2024-03-02T12:22:28;15.10;;;9.00;;
14048;SDS011;7099;53.922;10.728;2024-03-02T12:26:34;16.87;;;10.20;;
14048;SDS011;7099;53.922;10.728;2024-03-02T12:30:39;16.57;;;10.10;;
14048;SDS011;7099;53.922;10.728;2024-03-02T12:34:46;14.67;;;8.83;;
14048;SDS011;7099;53.922;10.728;2024-03-02T12:38:53;12.40;;;8.13;;
14048;SDS011;7099;53.922;10.728;2024-03-02T12:42:59;12.60;;;8.33;;
14048;SDS011;7099;53.922;10.728;2024-03-02T12:47:05;13.40;;;8.10;;
14048;SDS011;7099;53.922;10.728;2024-03-02T12:51:12;15.37;;;8.13;;
14048;SDS011;7099;53.922;10.728;2024-03-02T12:55:17;11.10;;;7.90;;
14048;SDS011;7099;53.922;10.728;2024-03-02T12:59:25;12.87;;;8.00;;
14048;SDS011;7099;53.922;10.728;2024-03-02T13:03:35;11.80;;;8.13;;
14048;SDS011;7099;53.922;10.728;2024-03-02T13:07:42;12.57;;;8.53;;
14048;SDS011;7099;53.922;10.728;2024-03-02T13:11:49;10.87;;;7.80;;
14048;SDS011;7099;53.922;10.728;2024-03-02T13:15:55;11.27;;;7.90;;
14048;SDS011;7099;53.922;10.728;2024-03-02T13:20:01;15.03;;;7.40;;
14048;SDS011;7099;53.922;10.728;2024-03-02T13:24:09;20.00;;;7.70;;
14048;SDS011;7099;53.922;10.728;2024-03-02T13:28:14;12.10;;;7.93;;
14048;SDS011;7099;53.922;10.728;2024-03-02T13:32:20;9.93;;;7.37;;
14048;SDS011;7099;53.922;10.728;2024-03-02T13:36:28;20.30;;;8.13;;
14048;SDS011;7099;53.922;10.728;2024-03-02T13:40:34;12.80;;;7.93;;
14048;SDS011;7099;53.922;10.728;2024-03-02T13:44:40;9.90;;;6.93;;
14048;SDS011;7099;53.922;10.728;2024-03-02T13:48:52;13.80;;;7.33;;
14048;SDS011;7099;53.922;10.728;2024-03-02T13:52:59;9.40;;;6.87;;
14048;SDS011;7099;53.922;10.728;2024-03-02T13:57:05;9.73;;;6.13;;
14048;SDS011;7099;53.922;10.728;2024-03-02T14:01:11;9.37;;;6.30;;
14048;SDS011;7099;53.922;10.728;2024-03-02T14:05:17;9.80;;;6.53;;
14048;SDS011;7099;53.922;10.728;2024-03-02T14:09:24;10.90;;;6.10;;
14048;SDS011;7099;53.922;10.728;2024-03-02T14:13:31;10.57;;;6.33;;
14048;SDS011;7099;53.922;10.728;2024-03-02T14:17:37;9.30;;;6.30;;
14048;SDS011;7099;53.922;10.728;2024-03-02T14:21:43;9.43;;;6.30;;
14048;SDS011;7099;53.922;10.728;2024-03-02T14:25:48;10.13;;;6.20;;
14048;SDS011;7099;53.922;10.728;2024-03-02T14:29:54;10.63;;;6.40;;
14048;SDS011;7099;53.922;10.728;2024-03-02T14:33:59;8.40;;;5.93;;
14048;SDS011;7099;53.922;10.728;2024-03-02T14:38:05;13.63;;;6.43;;
14048;SDS011;7099;53.922;10.728;2024-03-02T14:42:11;9.80;;;6.07;;
14048;SDS011;7099;53.922;10.728;2024-03-02T14:46:17;8.10;;;5.67;;
14048;SDS011;7099;53.922;10.728;2024-03-02T14:50:23;9.37;;;6.40;;
14048;SDS011;7099;53.922;10.728;2024-03-02T14:54:28;9.30;;;5.80;;
14048;SDS011;7099;53.922;10.728;2024-03-02T14:58:34;9.60;;;5.27;;
14048;SDS011;7099;53.922;10.728;2024-03-02T15:02:41;12.87;;;5.53;;
14048;SDS011;7099;53.922;10.728;2024-03-02T15:06:46;9.07;;;5.93;;
14048;SDS011;7099;53.922;10.728;2024-03-02T15:10:52;8.73;;;5.90;;
14048;SDS011;7099;53.922;10.728;2024-03-02T15:15:01;8.53;;;5.90;;
14048;SDS011;7099;53.922;10.728;2024-03-02T15:19:06;8.73;;;6.50;;
14048;SDS011;7099;53.922;10.728;2024-03-02T15:23:12;8.83;;;5.90;;
14048;SDS011;7099;53.922;10.728;2024-03-02T15:27:18;13.17;;;6.67;;
14048;SDS011;7099;53.922;10.728;2024-03-02T15:31:23;11.10;;;7.37;;
14048;SDS011;7099;53.922;10.728;2024-03-02T15:35:30;10.87;;;7.50;;
14048;SDS011;7099;53.922;10.728;2024-03-02T15:39:35;11.53;;;7.20;;
14048;SDS011;7099;53.922;10.728;2024-03-02T15:43:41;11.77;;;7.20;;
14048;SDS011;7099;53.922;10.728;2024-03-02T15:47:47;14.87;;;7.93;;
14048;SDS011;7099;53.922;10.728;2024-03-02T15:51:53;16.20;;;10.30;;
14048;SDS011;7099;53.922;10.728;2024-03-02T15:55:59;11.50;;;7.97;;
14048;SDS011;7099;53.922;10.728;2024-03-02T16:00:04;18.40;;;9.13;;
14048;SDS011;7099;53.922;10.728;2024-03-02T16:04:11;12.67;;;8.13;;
14048;SDS011;7099;53.922;10.728;2024-03-02T16:08:17;14.70;;;9.37;;
14048;SDS011;7099;53.922;10.728;2024-03-02T16:12:22;14.57;;;9.40;;
14048;SDS011;7099;53.922;10.728;2024-03-02T16:16:28;13.83;;;8.83;;
14048;SDS011;7099;53.922;10.728;2024-03-02T16:20:34;13.50;;;8.43;;
14048;SDS011;7099;53.922;10.728;2024-03-02T16:24:39;12.80;;;8.80;;
14048;SDS011;7099;53.922;10.728;2024-03-02T16:28:45;13.20;;;8.73;;
14048;SDS011;7099;53.922;10.728;2024-03-02T16:32:50;12.20;;;8.53;;
14048;SDS011;7099;53.922;10.728;2024-03-02T16:36:56;12.80;;;8.97;;
14048;SDS011;7099;53.922;10.728;2024-03-02T16:41:02;15.67;;;9.13;;
14048;SDS011;7099;53.922;10.728;2024-03-02T16:45:08;14.53;;;9.33;;
14048;SDS011;7099;53.922;10.728;2024-03-02T16:49:14;13.40;;;8.70;;
14048;SDS011;7099;53.922;10.728;2024-03-02T16:53:19;15.10;;;8.80;;
14048;SDS011;7099;53.922;10.728;2024-03-02T16:57:25;13.90;;;9.07;;
14048;SDS011;7099;53.922;10.728;2024-03-02T17:01:30;14.67;;;8.70;;
14048;SDS011;7099;53.922;10.728;2024-03-02T17:05:37;12.97;;;9.10;;
14048;SDS011;7099;53.922;10.728;2024-03-02T17:09:42;20.80;;;9.73;;
14048;SDS011;7099;53.922;10.728;2024-03-02T17:13:48;18.80;;;9.60;;
14048;SDS011;7099;53.922;10.728;2024-03-02T17:17:57;19.33;;;11.40;;
14048;SDS011;7099;53.922;10.728;2024-03-02T17:22:02;19.83;;;12.13;;
14048;SDS011;7099;53.922;10.728;2024-03-02T17:26:08;15.33;;;10.43;;
14048;SDS011;7099;53.922;10.728;2024-03-02T17:30:13;15.40;;;10.40;;
14048;SDS011;7099;53.922;10.728;2024-03-02T17:34:19;18.50;;;9.70;;
14048;SDS011;7099;53.922;10.728;2024-03-02T17:38:25;18.67;;;11.20;;
14048;SDS011;7099;53.922;10.728;2024-03-02T17:42:30;24.03;;;14.47;;
14048;SDS011;7099;53.922;10.728;2024-03-02T17:46:36;16.60;;;11.50;;
14048;SDS011;7099;53.922;10.728;2024-03-02T17:50:41;17.10;;;10.83;;
14048;SDS011;7099;53.922;10.728;2024-03-02T17:54:47;22.37;;;13.10;;
14048;SDS011;7099;53.922;10.728;2024-03-02T17:58:53;25.00;;;15.13;;
14048;SDS011;7099;53.922;10.728;2024-03-02T18:02:58;22.37;;;13.53;;
14048;SDS011;7099;53.922;10.728;2024-03-02T18:07:04;20.20;;;12.90;;
14048;SDS011;7099;53.922;10.728;2024-03-02T18:11:09;20.27;;;13.27;;
14048;SDS011;7099;53.922;10.728;2024-03-02T18:15:15;24.10;;;14.93;;
14048;SDS011;7099;53.922;10.728;2024-03-02T18:19:20;26.73;;;18.73;;
14048;SDS011;7099;53.922;10.728;2024-03-02T18:23:26;33.43;;;18.73;;
14048;SDS011;7099;53.922;10.728;2024-03-02T18:27:32;23.07;;;15.60;;
14048;SDS011;7099;53.922;10.728;2024-03-02T18:31:40;29.77;;;18.70;;
14048;SDS011;7099;53.922;10.728;2024-03-02T18:35:46;24.57;;;16.20;;
14048;SDS011;7099;53.922;10.728;2024-03-02T18:39:51;22.23;;;14.20;;
14048;SDS011;7099;53.922;10.728;2024-03-02T18:43:58;27.40;;;17.00;;
14048;SDS011;7099;53.922;10.728;2024-03-02T18:48:04;42.83;;;22.43;;
14048;SDS011;7099;53.922;10.728;2024-03-02T18:52:10;23.30;;;14.63;;
14048;SDS011;7099;53.922;10.728;2024-03-02T18:56:16;29.00;;;18.50;;
14048;SDS011;7099;53.922;10.728;2024-03-02T19:00:22;33.20;;;19.70;;
14048;SDS011;7099;53.922;10.728;2024-03-02T19:04:28;60.93;;;31.33;;
14048;SDS011;7099;53.922;10.728;2024-03-02T19:08:33;33.30;;;19.73;;
14048;SDS011;7099;53.922;10.728;2024-03-02T19:12:39;23.37;;;14.80;;
14048;SDS011;7099;53.922;10.728;2024-03-02T19:16:46;42.43;;;24.00;;
14048;SDS011;7099;53.922;10.728;2024-03-02T19:20:52;70.13;;;36.50;;
14048;SDS011;7099;53.922;10.728;2024-03-02T19:24:57;64.00;;;37.33;;
14048;SDS011;7099;53.922;10.728;2024-03-02T19:29:03;29.50;;;17.37;;
14048;SDS011;7099;53.922;10.728;2024-03-02T19:33:08;31.17;;;18.20;;
14048;SDS011;7099;53.922;10.728;2024-03-02T19:37:14;31.67;;;17.97;;
14048;SDS011;7099;53.922;10.728;2024-03-02T19:41:19;23.53;;;14.00;;
14048;SDS011;7099;53.922;10.728;2024-03-02T19:45:25;26.37;;;16.50;;
14048;SDS011;7099;53.922;10.728;2024-03-02T19:49:30;28.50;;;16.60;;
14048;SDS011;7099;53.922;10.728;2024-03-02T19:53:36;41.63;;;23.80;;
14048;SDS011;7099;53.922;10.728;2024-03-02T19:57:43;73.70;;;38.03;;
14048;SDS011;7099;53.922;10.728;2024-03-02T20:01:51;46.60;;;26.03;;
14048;SDS011;7099;53.922;10.728;2024-03-02T20:05:57;36.90;;;20.20;;
14048;SDS011;7099;53.922;10.728;2024-03-02T20:10:03;27.07;;;16.37;;
14048;SDS011;7099;53.922;10.728;2024-03-02T20:14:11;25.77;;;15.20;;
14048;SDS011;7099;53.922;10.728;2024-03-02T20:18:16;24.80;;;14.77;;
14048;SDS011;7099;53.922;10.728;2024-03-02T20:22:23;21.30;;;14.13;;
14048;SDS011;7099;53.922;10.728;2024-03-02T20:26:29;33.87;;;15.47;;
14048;SDS011;7099;53.922;10.728;2024-03-02T20:30:34;29.03;;;15.60;;
14048;SDS011;7099;53.922;10.728;2024-03-02T20:34:40;31.57;;;18.67;;
14048;SDS011;7099;53.922;10.728;2024-03-02T20:38:45;29.77;;;17.20;;
14048;SDS011;7099;53.922;10.728;2024-03-02T20:42:51;25.53;;;15.37;;
14048;SDS011;7099;53.922;10.728;2024-03-02T20:46:56;27.57;;;15.10;;
14048;SDS011;7099;53.922;10.728;2024-03-02T20:51:02;26.17;;;15.87;;
14048;SDS011;7099;53.922;10.728;2024-03-02T20:55:08;25.83;;;15.60;;
14048;SDS011;7099;53.922;10.728;2024-03-02T20:59:16;29.60;;;17.03;;
14048;SDS011;7099;53.922;10.728;2024-03-02T21:03:22;24.73;;;15.37;;
14048;SDS011;7099;53.922;10.728;2024-03-02T21:07:28;27.10;;;15.63;;
14048;SDS011;7099;53.922;10.728;2024-03-02T21:11:33;27.27;;;16.93;;
14048;SDS011;7099;53.922;10.728;2024-03-02T21:15:41;32.80;;;18.60;;
14048;SDS011;7099;53.922;10.728;2024-03-02T21:19:47;26.40;;;15.80;;
14048;SDS011;7099;53.922;10.728;2024-03-02T21:23:54;29.67;;;16.87;;
14048;SDS011;7099;53.922;10.728;2024-03-02T21:28:00;35.57;;;17.13;;
14048;SDS011;7099;53.922;10.728;2024-03-02T21:32:06;31.97;;;17.77;;
14048;SDS011;7099;53.922;10.728;2024-03-02T21:36:11;28.90;;;16.83;;
14048;SDS011;7099;53.922;10.728;2024-03-02T21:40:17;27.47;;;17.80;;
14048;SDS011;7099;53.922;10.728;2024-03-02T21:44:24;33.77;;;16.93;;
14048;SDS011;7099;53.922;10.728;2024-03-02T21:48:29;27.57;;;17.27;;
14048;SDS011;7099;53.922;10.728;2024-03-02T21:52:35;23.90;;;15.63;;
14048;SDS011;7099;53.922;10.728;2024-03-02T21:56:41;28.03;;;16.17;;
14048;SDS011;7099;53.922;10.728;2024-03-02T22:00:46;27.67;;;15.50;;
14048;SDS011;7099;53.922;10.728;2024-03-02T22:04:52;26.57;;;16.17;;
14048;SDS011;7099;53.922;10.728;2024-03-02T22:08:57;25.63;;;15.13;;
14048;SDS011;7099;53.922;10.728;2024-03-02T22:13:03;23.85;;;14.50;;
14048;SDS011;7099;53.922;10.728;2024-03-02T22:17:08;26.10;;;15.53;;
14048;SDS011;7099;53.922;10.728;2024-03-02T22:21:16;29.17;;;16.93;;
14048;SDS011;7099;53.922;10.728;2024-03-02T22:25:21;27.03;;;15.63;;
14048;SDS011;7099;53.922;10.728;2024-03-02T22:29:27;27.87;;;15.47;;
14048;SDS011;7099;53.922;10.728;2024-03-02T22:33:32;23.80;;;15.00;;
14048;SDS011;7099;53.922;10.728;2024-03-02T22:37:38;26.67;;;14.97;;
14048;SDS011;7099;53.922;10.728;2024-03-02T22:49:55;25.07;;;14.53;;
14048;SDS011;7099;53.922;10.728;2024-03-02T22:54:00;27.00;;;15.50;;
14048;SDS011;7099;53.922;10.728;2024-03-02T22:58:06;27.93;;;15.83;;
14048;SDS011;7099;53.922;10.728;2024-03-02T23:02:12;29.77;;;17.00;;
14048;SDS011;7099;53.922;10.728;2024-03-02T23:06:18;30.13;;;16.70;;
14048;SDS011;7099;53.922;10.728;2024-03-02T23:10:27;33.87;;;17.53;;
14048;SDS011;7099;53.922;10.728;2024-03-02T23:14:33;28.67;;;15.47;;
14048;SDS011;7099;53.922;10.728;2024-03-02T23:18:38;32.40;;;17.37;;
14048;SDS011;7099;53.922;10.728;2024-03-02T23:22:44;29.50;;;16.80;;
